Historyczne dane pomiarowe

Dodano dane terminowe – wersja testowa.

Dane z okresu 1951-2019

Wersja bazy: 1.34 [2019-03-16, lista zmian], aktualizacja planowana na 2019-04-15

Dane meteo z obszaru Polski uzyskane na podstawie danych udostępnionych przez Instytut Meteorologii i Gospodarki Wodnej – Państwowy Instytut Badawczy.

 

Wybierz Datę:    

       

TemperaturaWilgotnośćWiatrCiśnienieOpadyŚniegCzas trwania zjawisk
 Stacja t tx tn tng RH VA  wxwx mslp ppp RRR   cm mm wxwxwxwxwxwxwx
2019-06-19 23.8 32.0 13.5- 52.8- 4.7 2.7---- 0.0------------
2019-06-18 21.7 28.8 11.1- 49.5- 2.3 3.0---- 0.0------------
2019-06-17 20.3 26.9 9.8- 52.8- 3.0 2.0---- 0.0------------
2019-06-16 22.1 28.4 18.1- 59.5- 5.0 4.0---- 0.0------------
2019-06-15 26.8 34.7 20.4- 54.8- 4.3 5.0---- 0.0------------
2019-06-14 22.4 29.8 12.3- 60.3- 3.0 3.7---- 0.0------------
2019-06-13 21.7 30.3 15.8- 75.5- 4.0 2.0---- 0.0------------
2019-06-12 27.7 34.9 20.0- 51.5- 5.3 4.7---- 4.8------------
2019-06-11 26.4 34.7 17.8- 57.5- 2.7 2.7---- 0.0------------
2019-06-10 23.8 31.0 18.2- 55.0- 6.3 3.0---- 0.0------------
2019-06-09 18.4 26.4 6.4- 42.5- 3.0 2.7---- 0.0------------
2019-06-08 18.8 23.1 12.8- 57.5- 3.7 4.7---- 0.0------------
2019-06-07 19.6 23.6 15.6- 80.8- 5.3 2.7---- 0.0------------
2019-06-06 22.3 30.0 17.4- 64.3- 4.3 5.0---- 2.5------------
2019-06-05 24.0 31.2 13.8- 52.8- 1.7 4.3---- 0.0------------
2019-06-04 23.6 31.2 13.8- 55.8- 1.7 3.0---- 0.0------------
2019-06-03 23.1 30.9 12.1- 51.3- 0.3 3.3---- 0.0------------
2019-06-02 23.1 28.8 18.1- 59.8- 2.3 2.3---- 0.0------------
2019-06-01 21.4 27.5 14.4- 69.8- 4.7 2.0---- 0.0------------
2019-05-31 16.5 23.0 9.6- 72.0- 7.7 3.3---- 1.9------------
2019-05-30 12.6 20.3 1.4- 53.5- 2.3 2.3---- 0.0------------
2019-05-29 12.4 16.3 7.9- 65.3- 5.7 2.7---- 0.0------------
2019-05-28 15.5 20.5 12.7- 94.5- 8.0 2.3---- 2.4------------
2019-05-27 18.4 23.4 12.2- 58.0- 7.3 4.0---- 5.5------------
2019-05-26 15.4 22.6 7.0- 63.5- 6.7 4.3---- 0.0------------
2019-05-25 14.8 20.2 9.2- 66.3- 6.3 3.7---- 0.0------------
2019-05-24 14.1 21.3 3.6- 63.3- 7.3 2.3---- 0.0------------
2019-05-23 13.9 18.4 10.4- 77.0- 6.3 2.3---- 0.0------------
2019-05-22 14.9 19.6 12.3- 93.8- 8.0 5.0---- 2.4------------
2019-05-21 16.7 23.9 7.8- 68.8- 5.3 2.0---- 4.3------------
2019-05-20 17.0 22.4 9.4- 81.3- 6.3 3.0---- 0.5------------
2019-05-19 16.7 25.0 7.9- 72.0- 4.7 3.0---- 0.0------------
2019-05-18 16.5 23.6 6.2- 62.5- 1.0 3.3---- 0.0------------
2019-05-17 11.8 18.0 4.4- 85.5- 6.0 2.0---- 0.0------------
2019-05-16 9.5 12.5 4.1- 94.0- 7.7 1.3---- 1.7------------
2019-05-15 7.6 11.2 3.9- 89.3- 8.0 3.3---- 5.7------------
2019-05-14 8.8 14.8 2.7- 60.3- 4.0 3.7---- 2.0------------
2019-05-13 9.3 14.1 4.0- 55.0- 4.0 3.3---- 0.1------------
2019-05-12 9.7 15.1 4.3- 75.8- 6.7 3.7---- 2.7------------
2019-05-11 10.1 16.0 2.7- 79.0- 7.7 2.0---- 7.6------------
2019-05-10 10.2 15.1 3.4- 93.8- 5.7 2.7---- 1.1------------
2019-05-09 11.9 15.6 8.9- 91.0- 6.3 2.3---- 11.1------------
2019-05-08 9.1 17.7 -2.7- 59.5- 4.7 3.3---- 1.7------------
2019-05-07 6.9 12.8 0.8- 72.3- 6.7 3.0---- 0.0------------
2019-05-06 6.0 12.7 -2.0- 60.5- 5.0 3.3---- 0.0------------
2019-05-05 6.9 12.6 0.7- 62.8- 5.0 2.3---- 0.0------------
2019-05-04 6.4 10.1 3.5- 80.0- 8.0 2.7---- 6.6------------
2019-05-03 9.3 12.6 7.0- 50.0- 6.3 4.7---- 0.0------------
2019-05-02 10.4 15.7 6.0- 68.5- 7.0 5.3---- 0.4------------
2019-05-01 11.7 18.7 2.6- 60.8- 6.0 4.0---- 0.0------------
2019-04-30 12.0 19.8 5.1- 57.3- 2.0 3.3---- 0.0------------
2019-04-29 13.9 19.8 9.1- 81.8- 5.3 3.3---- 0.0------------
2019-04-28 11.3 14.4 8.2- 72.8- 8.0 4.7---- 1.1------------
2019-04-27 14.3 22.7 10.3- 74.5- 7.3 3.3---- 0.0------------
2019-04-26 18.4 28.3 7.9- 57.8- 4.7 1.3---- 0.4------------
2019-04-25 17.6 26.0 7.7- 53.0- 2.7 2.7---- 0.0------------
2019-04-24 16.4 20.5 12.4- 58.8- 4.7 4.3---- 0.0------------
2019-04-23 13.5 19.6 7.9- 50.0- 5.3 7.0---- 0.0------------
2019-04-22 10.4 16.7 1.5- 57.0- 0.7 5.0---- 0.0------------
2019-04-21 11.5 20.2 0.4- 50.3- 0.3 2.0---- 0.0------------
201.3 ms

 

Źródłem pochodzenia danych jest Instytut Meteorologii i Gospodarki Wodnej – Państwowy Instytut Badawczy. Dane Instytutu Meteorologii i Gospodarki Wodnej – Państwowego Instytutu Badawczego zostały przetworzone.

Dane źródłowe można odnaleźć na stronie https://dane.imgw.pl